Terminal Aerodrome Forecast
Issued by NWS Sterling, VA

Current Version | Previous Version | Graphics & Text | Print | Product List | Glossary On
Versions: 1 2 3 4 5 6 7 8 9 10 11 12 13 14 15 16 17 18 19 20 21 22 23 24
392
FTUS41 KLWX 211123
TAFDCA
TAF
KDCA 211123Z 2112/2212 VRB03KT P6SM VCSH BKN100
     FM211400 25007KT P6SM BKN090
     FM211800 26007KT P6SM -SHRA VCTS BKN060CB
     FM220000 31005KT P6SM BKN150
     FM220500 34005KT P6SM BKN080=

USA.gov is the U.S. government's official web portal to all federal, state and local government web resources and services.